sensor_id;sensor_type;location;lat;lon;timestamp;P1;durP1;ratioP1;P2;durP2;ratioP2
25715;SDS011;13573;50.936;4.328;2023-05-10T00:02:02;21.67;;;17.27;;
25715;SDS011;13573;50.936;4.328;2023-05-10T00:04:28;27.33;;;18.40;;
25715;SDS011;13573;50.936;4.328;2023-05-10T00:06:55;26.17;;;18.67;;
25715;SDS011;13573;50.936;4.328;2023-05-10T00:09:21;28.47;;;17.50;;
25715;SDS011;13573;50.936;4.328;2023-05-10T00:11:48;26.60;;;20.13;;
25715;SDS011;13573;50.936;4.328;2023-05-10T00:14:15;23.97;;;19.00;;
25715;SDS011;13573;50.936;4.328;2023-05-10T00:16:41;32.77;;;19.43;;
25715;SDS011;13573;50.936;4.328;2023-05-10T00:19:08;28.37;;;20.17;;
25715;SDS011;13573;50.936;4.328;2023-05-10T00:21:35;27.07;;;20.50;;
25715;SDS011;13573;50.936;4.328;2023-05-10T00:24:01;28.27;;;21.00;;
25715;SDS011;13573;50.936;4.328;2023-05-10T00:26:28;35.63;;;22.37;;
25715;SDS011;13573;50.936;4.328;2023-05-10T00:28:55;28.60;;;19.97;;
25715;SDS011;13573;50.936;4.328;2023-05-10T00:31:22;31.23;;;22.80;;
25715;SDS011;13573;50.936;4.328;2023-05-10T00:33:49;34.53;;;21.13;;
25715;SDS011;13573;50.936;4.328;2023-05-10T00:36:15;28.63;;;20.97;;
25715;SDS011;13573;50.936;4.328;2023-05-10T00:38:42;32.07;;;19.17;;
25715;SDS011;13573;50.936;4.328;2023-05-10T00:41:08;27.03;;;20.13;;
25715;SDS011;13573;50.936;4.328;2023-05-10T00:43:35;36.77;;;22.30;;
25715;SDS011;13573;50.936;4.328;2023-05-10T00:46:02;29.67;;;19.37;;
25715;SDS011;13573;50.936;4.328;2023-05-10T00:48:28;29.47;;;21.30;;
25715;SDS011;13573;50.936;4.328;2023-05-10T00:50:55;32.93;;;21.70;;
25715;SDS011;13573;50.936;4.328;2023-05-10T00:53:22;27.70;;;21.10;;
25715;SDS011;13573;50.936;4.328;2023-05-10T00:55:50;32.23;;;22.50;;
25715;SDS011;13573;50.936;4.328;2023-05-10T00:58:17;29.60;;;22.03;;
25715;SDS011;13573;50.936;4.328;2023-05-10T01:00:43;29.73;;;21.37;;
25715;SDS011;13573;50.936;4.328;2023-05-10T01:03:12;28.90;;;21.13;;
25715;SDS011;13573;50.936;4.328;2023-05-10T01:05:39;35.33;;;20.80;;
25715;SDS011;13573;50.936;4.328;2023-05-10T01:08:06;36.43;;;23.10;;
25715;SDS011;13573;50.936;4.328;2023-05-10T01:10:34;34.10;;;21.80;;
25715;SDS011;13573;50.936;4.328;2023-05-10T01:13:01;29.20;;;23.33;;
25715;SDS011;13573;50.936;4.328;2023-05-10T01:15:28;36.00;;;23.40;;
25715;SDS011;13573;50.936;4.328;2023-05-10T01:17:56;34.13;;;22.57;;
25715;SDS011;13573;50.936;4.328;2023-05-10T01:20:23;35.70;;;23.03;;
25715;SDS011;13573;50.936;4.328;2023-05-10T01:23:05;32.13;;;20.67;;
25715;SDS011;13573;50.936;4.328;2023-05-10T01:28:36;38.03;;;23.47;;
25715;SDS011;13573;50.936;4.328;2023-05-10T01:31:07;32.93;;;21.70;;
25715;SDS011;13573;50.936;4.328;2023-05-10T01:33:52;29.47;;;22.30;;
25715;SDS011;13573;50.936;4.328;2023-05-10T01:36:30;32.73;;;22.17;;
25715;SDS011;13573;50.936;4.328;2023-05-10T01:39:20;33.57;;;23.17;;
25715;SDS011;13573;50.936;4.328;2023-05-10T01:41:52;31.60;;;19.63;;
25715;SDS011;13573;50.936;4.328;2023-05-10T01:47:03;31.33;;;22.47;;
25715;SDS011;13573;50.936;4.328;2023-05-10T01:49:39;37.87;;;23.20;;
25715;SDS011;13573;50.936;4.328;2023-05-10T01:52:05;35.50;;;23.13;;
25715;SDS011;13573;50.936;4.328;2023-05-10T01:54:34;30.57;;;22.77;;
25715;SDS011;13573;50.936;4.328;2023-05-10T01:57:05;38.43;;;21.10;;
25715;SDS011;13573;50.936;4.328;2023-05-10T01:59:34;34.90;;;20.60;;
25715;SDS011;13573;50.936;4.328;2023-05-10T02:02:05;27.60;;;21.43;;
25715;SDS011;13573;50.936;4.328;2023-05-10T02:04:33;36.47;;;23.77;;
25715;SDS011;13573;50.936;4.328;2023-05-10T02:07:03;32.33;;;23.17;;
25715;SDS011;13573;50.936;4.328;2023-05-10T02:09:32;36.67;;;22.10;;
25715;SDS011;13573;50.936;4.328;2023-05-10T02:12:01;35.40;;;22.77;;
25715;SDS011;13573;50.936;4.328;2023-05-10T02:14:32;35.67;;;23.33;;
25715;SDS011;13573;50.936;4.328;2023-05-10T02:17:03;39.33;;;22.27;;
25715;SDS011;13573;50.936;4.328;2023-05-10T02:19:32;35.97;;;22.17;;
25715;SDS011;13573;50.936;4.328;2023-05-10T02:22:00;37.37;;;24.23;;
25715;SDS011;13573;50.936;4.328;2023-05-10T02:24:28;38.90;;;23.73;;
25715;SDS011;13573;50.936;4.328;2023-05-10T02:26:55;41.93;;;25.27;;
25715;SDS011;13573;50.936;4.328;2023-05-10T02:29:24;37.77;;;23.50;;
25715;SDS011;13573;50.936;4.328;2023-05-10T02:31:53;36.30;;;23.93;;
25715;SDS011;13573;50.936;4.328;2023-05-10T02:34:22;39.27;;;22.87;;
25715;SDS011;13573;50.936;4.328;2023-05-10T02:36:50;35.87;;;22.37;;
25715;SDS011;13573;50.936;4.328;2023-05-10T02:39:19;40.53;;;25.13;;
25715;SDS011;13573;50.936;4.328;2023-05-10T02:41:46;36.07;;;23.63;;
25715;SDS011;13573;50.936;4.328;2023-05-10T02:44:15;40.93;;;25.17;;
25715;SDS011;13573;50.936;4.328;2023-05-10T02:46:45;42.17;;;24.87;;
25715;SDS011;13573;50.936;4.328;2023-05-10T02:49:13;38.37;;;24.90;;
25715;SDS011;13573;50.936;4.328;2023-05-10T02:51:42;39.37;;;25.07;;
25715;SDS011;13573;50.936;4.328;2023-05-10T02:54:15;39.63;;;23.07;;
25715;SDS011;13573;50.936;4.328;2023-05-10T02:56:46;41.57;;;25.10;;
25715;SDS011;13573;50.936;4.328;2023-05-10T02:59:15;34.83;;;23.87;;
25715;SDS011;13573;50.936;4.328;2023-05-10T03:01:42;38.93;;;23.83;;
25715;SDS011;13573;50.936;4.328;2023-05-10T03:04:09;37.47;;;23.77;;
25715;SDS011;13573;50.936;4.328;2023-05-10T03:06:36;38.57;;;24.60;;
25715;SDS011;13573;50.936;4.328;2023-05-10T03:09:03;38.73;;;22.73;;
25715;SDS011;13573;50.936;4.328;2023-05-10T03:11:53;31.27;;;20.60;;
25715;SDS011;13573;50.936;4.328;2023-05-10T03:14:10;34.17;;;22.40;;
25715;SDS011;13573;50.936;4.328;2023-05-10T03:16:44;41.10;;;24.33;;
25715;SDS011;13573;50.936;4.328;2023-05-10T03:21:51;38.83;;;23.80;;
25715;SDS011;13573;50.936;4.328;2023-05-10T03:24:21;39.20;;;23.27;;
25715;SDS011;13573;50.936;4.328;2023-05-10T03:26:49;45.47;;;23.40;;
25715;SDS011;13573;50.936;4.328;2023-05-10T03:29:18;43.30;;;23.43;;
25715;SDS011;13573;50.936;4.328;2023-05-10T03:31:46;43.40;;;24.73;;
25715;SDS011;13573;50.936;4.328;2023-05-10T03:34:12;41.73;;;24.13;;
25715;SDS011;13573;50.936;4.328;2023-05-10T03:36:39;40.87;;;24.50;;
25715;SDS011;13573;50.936;4.328;2023-05-10T03:39:06;39.80;;;24.63;;
25715;SDS011;13573;50.936;4.328;2023-05-10T03:41:32;42.37;;;24.33;;
25715;SDS011;13573;50.936;4.328;2023-05-10T03:43:59;42.70;;;23.80;;
25715;SDS011;13573;50.936;4.328;2023-05-10T03:46:26;42.47;;;23.87;;
25715;SDS011;13573;50.936;4.328;2023-05-10T03:48:53;39.57;;;23.67;;
25715;SDS011;13573;50.936;4.328;2023-05-10T03:51:19;39.83;;;23.53;;
25715;SDS011;13573;50.936;4.328;2023-05-10T03:53:46;40.03;;;22.87;;
25715;SDS011;13573;50.936;4.328;2023-05-10T03:56:13;41.43;;;22.17;;
25715;SDS011;13573;50.936;4.328;2023-05-10T03:58:40;43.57;;;23.83;;
25715;SDS011;13573;50.936;4.328;2023-05-10T04:01:06;39.00;;;21.13;;
25715;SDS011;13573;50.936;4.328;2023-05-10T04:03:33;35.13;;;21.70;;
25715;SDS011;13573;50.936;4.328;2023-05-10T04:06:01;43.20;;;22.83;;
25715;SDS011;13573;50.936;4.328;2023-05-10T04:08:28;36.30;;;21.73;;
25715;SDS011;13573;50.936;4.328;2023-05-10T04:11:04;37.73;;;22.03;;
25715;SDS011;13573;50.936;4.328;2023-05-10T04:13:29;43.57;;;23.13;;
25715;SDS011;13573;50.936;4.328;2023-05-10T04:15:56;44.60;;;22.50;;
25715;SDS011;13573;50.936;4.328;2023-05-10T04:18:22;40.50;;;20.80;;
25715;SDS011;13573;50.936;4.328;2023-05-10T04:20:49;45.93;;;21.03;;
25715;SDS011;13573;50.936;4.328;2023-05-10T04:23:16;38.23;;;20.83;;
25715;SDS011;13573;50.936;4.328;2023-05-10T04:25:42;48.17;;;23.63;;
25715;SDS011;13573;50.936;4.328;2023-05-10T04:28:09;41.13;;;21.77;;
25715;SDS011;13573;50.936;4.328;2023-05-10T04:30:36;41.87;;;21.33;;
25715;SDS011;13573;50.936;4.328;2023-05-10T04:33:03;43.13;;;21.70;;
25715;SDS011;13573;50.936;4.328;2023-05-10T04:35:29;42.43;;;20.77;;
25715;SDS011;13573;50.936;4.328;2023-05-10T04:37:56;41.93;;;21.07;;
25715;SDS011;13573;50.936;4.328;2023-05-10T04:40:23;40.53;;;20.87;;
25715;SDS011;13573;50.936;4.328;2023-05-10T04:42:49;44.20;;;21.70;;
25715;SDS011;13573;50.936;4.328;2023-05-10T04:45:16;40.77;;;21.50;;
25715;SDS011;13573;50.936;4.328;2023-05-10T04:47:43;46.13;;;22.17;;
25715;SDS011;13573;50.936;4.328;2023-05-10T04:50:09;41.43;;;21.27;;
25715;SDS011;13573;50.936;4.328;2023-05-10T04:52:36;37.27;;;18.53;;
25715;SDS011;13573;50.936;4.328;2023-05-10T04:55:02;34.03;;;18.40;;
25715;SDS011;13573;50.936;4.328;2023-05-10T04:57:30;42.13;;;19.63;;
25715;SDS011;13573;50.936;4.328;2023-05-10T04:59:56;36.97;;;17.97;;
25715;SDS011;13573;50.936;4.328;2023-05-10T05:02:23;40.47;;;18.27;;
25715;SDS011;13573;50.936;4.328;2023-05-10T05:04:49;37.93;;;17.47;;
25715;SDS011;13573;50.936;4.328;2023-05-10T05:07:16;32.43;;;16.87;;
25715;SDS011;13573;50.936;4.328;2023-05-10T05:09:43;36.10;;;16.97;;
25715;SDS011;13573;50.936;4.328;2023-05-10T05:12:09;36.90;;;18.33;;
25715;SDS011;13573;50.936;4.328;2023-05-10T05:14:38;32.60;;;17.13;;
25715;SDS011;13573;50.936;4.328;2023-05-10T05:17:05;35.53;;;16.17;;
25715;SDS011;13573;50.936;4.328;2023-05-10T05:19:31;36.70;;;16.17;;
25715;SDS011;13573;50.936;4.328;2023-05-10T05:21:58;33.00;;;17.10;;
25715;SDS011;13573;50.936;4.328;2023-05-10T05:24:25;36.70;;;15.80;;
25715;SDS011;13573;50.936;4.328;2023-05-10T05:26:51;29.87;;;15.03;;
25715;SDS011;13573;50.936;4.328;2023-05-10T05:29:18;29.77;;;15.73;;
25715;SDS011;13573;50.936;4.328;2023-05-10T05:31:45;36.20;;;16.57;;
25715;SDS011;13573;50.936;4.328;2023-05-10T05:34:12;39.13;;;16.07;;
25715;SDS011;13573;50.936;4.328;2023-05-10T05:36:38;32.83;;;16.23;;
25715;SDS011;13573;50.936;4.328;2023-05-10T05:39:05;35.33;;;16.80;;
25715;SDS011;13573;50.936;4.328;2023-05-10T05:41:31;32.77;;;16.37;;
25715;SDS011;13573;50.936;4.328;2023-05-10T05:43:58;32.43;;;16.20;;
25715;SDS011;13573;50.936;4.328;2023-05-10T05:46:25;31.53;;;16.80;;
25715;SDS011;13573;50.936;4.328;2023-05-10T05:48:51;32.57;;;15.37;;
25715;SDS011;13573;50.936;4.328;2023-05-10T05:51:18;32.03;;;16.23;;
25715;SDS011;13573;50.936;4.328;2023-05-10T05:53:44;37.57;;;16.90;;
25715;SDS011;13573;50.936;4.328;2023-05-10T05:56:11;35.20;;;16.73;;
25715;SDS011;13573;50.936;4.328;2023-05-10T05:58:38;33.93;;;16.80;;
25715;SDS011;13573;50.936;4.328;2023-05-10T06:01:04;28.93;;;15.73;;
25715;SDS011;13573;50.936;4.328;2023-05-10T06:03:31;36.07;;;16.17;;
25715;SDS011;13573;50.936;4.328;2023-05-10T06:05:58;28.23;;;14.97;;
25715;SDS011;13573;50.936;4.328;2023-05-10T06:08:25;33.87;;;16.50;;
25715;SDS011;13573;50.936;4.328;2023-05-10T06:10:51;30.50;;;16.00;;
25715;SDS011;13573;50.936;4.328;2023-05-10T06:13:18;32.07;;;15.37;;
25715;SDS011;13573;50.936;4.328;2023-05-10T06:15:53;37.70;;;17.07;;
25715;SDS011;13573;50.936;4.328;2023-05-10T06:18:41;31.47;;;16.33;;
25715;SDS011;13573;50.936;4.328;2023-05-10T06:21:07;34.67;;;17.90;;
25715;SDS011;13573;50.936;4.328;2023-05-10T06:23:35;35.77;;;18.90;;
25715;SDS011;13573;50.936;4.328;2023-05-10T06:26:02;35.97;;;18.50;;
25715;SDS011;13573;50.936;4.328;2023-05-10T06:28:28;41.27;;;17.20;;
25715;SDS011;13573;50.936;4.328;2023-05-10T06:30:56;40.77;;;17.93;;
25715;SDS011;13573;50.936;4.328;2023-05-10T06:33:23;39.77;;;17.80;;
25715;SDS011;13573;50.936;4.328;2023-05-10T06:35:50;38.13;;;17.77;;
25715;SDS011;13573;50.936;4.328;2023-05-10T06:38:17;43.43;;;20.37;;
25715;SDS011;13573;50.936;4.328;2023-05-10T06:40:44;40.13;;;20.17;;
25715;SDS011;13573;50.936;4.328;2023-05-10T06:43:10;40.80;;;17.60;;
25715;SDS011;13573;50.936;4.328;2023-05-10T06:45:37;43.97;;;19.40;;
25715;SDS011;13573;50.936;4.328;2023-05-10T06:48:05;40.43;;;18.83;;
25715;SDS011;13573;50.936;4.328;2023-05-10T06:50:34;44.50;;;19.73;;
25715;SDS011;13573;50.936;4.328;2023-05-10T06:53:02;41.77;;;18.73;;
25715;SDS011;13573;50.936;4.328;2023-05-10T06:55:30;39.40;;;18.20;;
25715;SDS011;13573;50.936;4.328;2023-05-10T06:57:57;39.50;;;18.90;;
25715;SDS011;13573;50.936;4.328;2023-05-10T07:00:24;48.90;;;20.63;;
25715;SDS011;13573;50.936;4.328;2023-05-10T07:02:51;41.57;;;19.70;;
25715;SDS011;13573;50.936;4.328;2023-05-10T07:05:19;49.20;;;20.90;;
25715;SDS011;13573;50.936;4.328;2023-05-10T07:07:45;44.87;;;20.70;;
25715;SDS011;13573;50.936;4.328;2023-05-10T07:10:13;50.90;;;20.77;;
25715;SDS011;13573;50.936;4.328;2023-05-10T07:12:41;49.30;;;20.60;;
25715;SDS011;13573;50.936;4.328;2023-05-10T07:15:09;50.00;;;21.60;;
25715;SDS011;13573;50.936;4.328;2023-05-10T07:17:35;51.17;;;21.23;;
25715;SDS011;13573;50.936;4.328;2023-05-10T07:20:03;49.33;;;19.90;;
25715;SDS011;13573;50.936;4.328;2023-05-10T07:22:30;55.27;;;20.60;;
25715;SDS011;13573;50.936;4.328;2023-05-10T07:24:57;43.03;;;19.40;;
25715;SDS011;13573;50.936;4.328;2023-05-10T07:27:24;39.27;;;18.10;;
25715;SDS011;13573;50.936;4.328;2023-05-10T07:29:53;43.77;;;17.80;;
25715;SDS011;13573;50.936;4.328;2023-05-10T07:32:20;40.63;;;18.53;;
25715;SDS011;13573;50.936;4.328;2023-05-10T07:34:47;39.90;;;17.27;;
25715;SDS011;13573;50.936;4.328;2023-05-10T07:37:14;37.40;;;17.03;;
25715;SDS011;13573;50.936;4.328;2023-05-10T07:39:43;41.33;;;16.83;;
25715;SDS011;13573;50.936;4.328;2023-05-10T07:42:09;35.57;;;15.97;;
25715;SDS011;13573;50.936;4.328;2023-05-10T07:44:36;45.00;;;16.30;;
25715;SDS011;13573;50.936;4.328;2023-05-10T07:47:04;39.33;;;17.27;;
25715;SDS011;13573;50.936;4.328;2023-05-10T07:49:33;29.53;;;13.87;;
25715;SDS011;13573;50.936;4.328;2023-05-10T07:52:02;30.97;;;15.30;;
25715;SDS011;13573;50.936;4.328;2023-05-10T07:54:30;32.27;;;14.37;;
25715;SDS011;13573;50.936;4.328;2023-05-10T07:56:57;36.77;;;14.53;;
25715;SDS011;13573;50.936;4.328;2023-05-10T07:59:25;29.07;;;13.60;;
25715;SDS011;13573;50.936;4.328;2023-05-10T08:01:53;33.10;;;14.70;;
25715;SDS011;13573;50.936;4.328;2023-05-10T08:04:20;30.20;;;12.30;;
25715;SDS011;13573;50.936;4.328;2023-05-10T08:06:48;28.30;;;13.43;;
25715;SDS011;13573;50.936;4.328;2023-05-10T08:09:15;32.10;;;13.80;;
25715;SDS011;13573;50.936;4.328;2023-05-10T08:11:43;25.33;;;12.27;;
25715;SDS011;13573;50.936;4.328;2023-05-10T08:14:09;35.90;;;11.13;;
25715;SDS011;13573;50.936;4.328;2023-05-10T08:16:36;25.17;;;11.07;;
25715;SDS011;13573;50.936;4.328;2023-05-10T08:19:03;29.60;;;10.03;;
25715;SDS011;13573;50.936;4.328;2023-05-10T08:21:31;38.90;;;9.90;;
25715;SDS011;13573;50.936;4.328;2023-05-10T08:23:58;25.93;;;10.00;;
25715;SDS011;13573;50.936;4.328;2023-05-10T08:26:24;27.30;;;9.20;;
25715;SDS011;13573;50.936;4.328;2023-05-10T08:28:51;34.13;;;11.03;;
25715;SDS011;13573;50.936;4.328;2023-05-10T08:31:18;21.50;;;8.83;;
25715;SDS011;13573;50.936;4.328;2023-05-10T08:33:45;21.43;;;8.83;;
25715;SDS011;13573;50.936;4.328;2023-05-10T08:36:12;20.63;;;8.23;;
25715;SDS011;13573;50.936;4.328;2023-05-10T08:38:44;24.70;;;9.07;;
25715;SDS011;13573;50.936;4.328;2023-05-10T08:41:15;17.87;;;8.30;;
25715;SDS011;13573;50.936;4.328;2023-05-10T08:43:43;30.23;;;9.30;;
25715;SDS011;13573;50.936;4.328;2023-05-10T08:46:15;25.40;;;7.73;;
25715;SDS011;13573;50.936;4.328;2023-05-10T08:48:45;26.63;;;8.57;;
25715;SDS011;13573;50.936;4.328;2023-05-10T08:51:13;35.77;;;9.70;;
25715;SDS011;13573;50.936;4.328;2023-05-10T08:53:43;20.30;;;8.77;;
25715;SDS011;13573;50.936;4.328;2023-05-10T08:56:12;19.43;;;9.10;;
25715;SDS011;13573;50.936;4.328;2023-05-10T08:58:42;21.90;;;8.60;;
25715;SDS011;13573;50.936;4.328;2023-05-10T09:01:09;20.50;;;9.70;;
25715;SDS011;13573;50.936;4.328;2023-05-10T09:03:38;18.77;;;7.40;;
25715;SDS011;13573;50.936;4.328;2023-05-10T09:06:04;14.37;;;7.83;;
25715;SDS011;13573;50.936;4.328;2023-05-10T09:08:35;15.83;;;8.33;;
25715;SDS011;13573;50.936;4.328;2023-05-10T09:11:07;19.40;;;7.97;;
25715;SDS011;13573;50.936;4.328;2023-05-10T09:13:40;14.80;;;8.03;;
25715;SDS011;13573;50.936;4.328;2023-05-10T09:16:07;14.57;;;8.43;;
25715;SDS011;13573;50.936;4.328;2023-05-10T09:18:34;18.43;;;7.90;;
25715;SDS011;13573;50.936;4.328;2023-05-10T09:21:02;19.27;;;9.03;;
25715;SDS011;13573;50.936;4.328;2023-05-10T09:23:30;21.17;;;9.00;;
25715;SDS011;13573;50.936;4.328;2023-05-10T09:26:04;16.07;;;8.53;;
25715;SDS011;13573;50.936;4.328;2023-05-10T09:28:34;13.17;;;7.40;;
25715;SDS011;13573;50.936;4.328;2023-05-10T09:31:03;22.27;;;9.33;;
25715;SDS011;13573;50.936;4.328;2023-05-10T09:33:30;18.00;;;8.10;;
25715;SDS011;13573;50.936;4.328;2023-05-10T09:36:06;18.00;;;7.93;;
25715;SDS011;13573;50.936;4.328;2023-05-10T09:38:44;17.60;;;9.17;;
25715;SDS011;13573;50.936;4.328;2023-05-10T09:41:18;34.80;;;8.20;;
25715;SDS011;13573;50.936;4.328;2023-05-10T09:43:46;19.13;;;9.30;;
25715;SDS011;13573;50.936;4.328;2023-05-10T09:46:15;20.50;;;8.57;;
25715;SDS011;13573;50.936;4.328;2023-05-10T09:48:43;17.63;;;8.10;;
25715;SDS011;13573;50.936;4.328;2023-05-10T09:53:46;22.77;;;8.33;;
25715;SDS011;13573;50.936;4.328;2023-05-10T09:59:01;15.43;;;8.47;;
25715;SDS011;13573;50.936;4.328;2023-05-10T10:01:28;18.90;;;7.40;;
25715;SDS011;13573;50.936;4.328;2023-05-10T10:03:56;29.10;;;7.50;;
25715;SDS011;13573;50.936;4.328;2023-05-10T10:06:24;19.70;;;7.47;;
25715;SDS011;13573;50.936;4.328;2023-05-10T10:08:52;17.47;;;7.60;;
25715;SDS011;13573;50.936;4.328;2023-05-10T10:11:20;20.03;;;8.07;;
25715;SDS011;13573;50.936;4.328;2023-05-10T10:13:48;16.37;;;9.87;;
25715;SDS011;13573;50.936;4.328;2023-05-10T10:16:15;12.67;;;8.77;;
25715;SDS011;13573;50.936;4.328;2023-05-10T10:18:42;18.97;;;9.63;;
25715;SDS011;13573;50.936;4.328;2023-05-10T10:21:09;14.20;;;8.33;;
25715;SDS011;13573;50.936;4.328;2023-05-10T10:23:35;14.17;;;8.30;;
25715;SDS011;13573;50.936;4.328;2023-05-10T10:26:03;14.73;;;7.70;;
25715;SDS011;13573;50.936;4.328;2023-05-10T10:28:36;17.97;;;7.77;;
25715;SDS011;13573;50.936;4.328;2023-05-10T10:34:09;17.80;;;7.80;;
25715;SDS011;13573;50.936;4.328;2023-05-10T10:36:44;14.53;;;8.83;;
25715;SDS011;13573;50.936;4.328;2023-05-10T10:39:14;15.40;;;7.57;;
25715;SDS011;13573;50.936;4.328;2023-05-10T10:41:50;16.13;;;7.63;;
25715;SDS011;13573;50.936;4.328;2023-05-10T10:44:30;12.67;;;7.13;;
25715;SDS011;13573;50.936;4.328;2023-05-10T10:47:02;11.53;;;7.30;;
25715;SDS011;13573;50.936;4.328;2023-05-10T10:50:02;13.80;;;7.37;;
25715;SDS011;13573;50.936;4.328;2023-05-10T10:52:33;12.97;;;6.87;;
25715;SDS011;13573;50.936;4.328;2023-05-10T10:55:06;10.37;;;6.50;;
25715;SDS011;13573;50.936;4.328;2023-05-10T10:57:52;10.47;;;6.53;;
25715;SDS011;13573;50.936;4.328;2023-05-10T11:00:24;10.20;;;7.00;;
25715;SDS011;13573;50.936;4.328;2023-05-10T11:02:55;11.73;;;6.57;;
25715;SDS011;13573;50.936;4.328;2023-05-10T11:08:16;14.17;;;6.53;;
25715;SDS011;13573;50.936;4.328;2023-05-10T11:10:50;8.97;;;6.33;;
25715;SDS011;13573;50.936;4.328;2023-05-10T11:13:34;14.50;;;6.73;;
25715;SDS011;13573;50.936;4.328;2023-05-10T11:16:10;15.40;;;6.77;;
25715;SDS011;13573;50.936;4.328;2023-05-10T11:18:40;12.10;;;6.77;;
25715;SDS011;13573;50.936;4.328;2023-05-10T11:21:09;11.17;;;7.13;;
25715;SDS011;13573;50.936;4.328;2023-05-10T11:23:54;12.13;;;7.30;;
25715;SDS011;13573;50.936;4.328;2023-05-10T11:26:24;11.23;;;7.27;;
25715;SDS011;13573;50.936;4.328;2023-05-10T11:28:53;17.00;;;7.47;;
25715;SDS011;13573;50.936;4.328;2023-05-10T11:31:21;13.60;;;8.13;;
25715;SDS011;13573;50.936;4.328;2023-05-10T11:33:50;13.37;;;7.63;;
25715;SDS011;13573;50.936;4.328;2023-05-10T11:36:18;13.10;;;7.90;;
25715;SDS011;13573;50.936;4.328;2023-05-10T11:38:46;12.53;;;7.13;;
25715;SDS011;13573;50.936;4.328;2023-05-10T11:41:14;11.10;;;7.77;;
25715;SDS011;13573;50.936;4.328;2023-05-10T11:43:43;14.30;;;7.97;;
25715;SDS011;13573;50.936;4.328;2023-05-10T11:46:15;13.43;;;8.93;;
25715;SDS011;13573;50.936;4.328;2023-05-10T11:48:46;15.87;;;8.50;;
25715;SDS011;13573;50.936;4.328;2023-05-10T11:51:21;18.40;;;9.53;;
25715;SDS011;13573;50.936;4.328;2023-05-10T11:53:49;16.60;;;9.70;;
25715;SDS011;13573;50.936;4.328;2023-05-10T11:56:18;17.17;;;10.63;;
25715;SDS011;13573;50.936;4.328;2023-05-10T11:58:51;19.07;;;9.57;;
25715;SDS011;13573;50.936;4.328;2023-05-10T12:01:20;17.87;;;9.90;;
25715;SDS011;13573;50.936;4.328;2023-05-10T12:03:47;17.57;;;10.00;;
25715;SDS011;13573;50.936;4.328;2023-05-10T12:06:15;17.07;;;9.83;;
25715;SDS011;13573;50.936;4.328;2023-05-10T12:08:44;14.23;;;8.90;;
25715;SDS011;13573;50.936;4.328;2023-05-10T12:11:13;17.93;;;9.43;;
25715;SDS011;13573;50.936;4.328;2023-05-10T12:13:42;16.70;;;9.33;;
25715;SDS011;13573;50.936;4.328;2023-05-10T12:16:16;14.10;;;9.07;;
25715;SDS011;13573;50.936;4.328;2023-05-10T12:18:48;16.77;;;8.77;;
25715;SDS011;13573;50.936;4.328;2023-05-10T12:21:16;15.57;;;8.70;;
25715;SDS011;13573;50.936;4.328;2023-05-10T12:23:45;15.40;;;8.57;;
25715;SDS011;13573;50.936;4.328;2023-05-10T12:26:12;13.03;;;8.63;;
25715;SDS011;13573;50.936;4.328;2023-05-10T12:28:39;15.37;;;8.47;;
25715;SDS011;13573;50.936;4.328;2023-05-10T12:31:06;13.83;;;8.27;;
25715;SDS011;13573;50.936;4.328;2023-05-10T12:33:38;14.03;;;8.83;;
25715;SDS011;13573;50.936;4.328;2023-05-10T12:36:09;17.97;;;9.40;;
25715;SDS011;13573;50.936;4.328;2023-05-10T12:38:38;13.97;;;8.13;;
25715;SDS011;13573;50.936;4.328;2023-05-10T12:41:09;14.97;;;8.53;;
25715;SDS011;13573;50.936;4.328;2023-05-10T12:43:37;13.47;;;8.10;;
25715;SDS011;13573;50.936;4.328;2023-05-10T12:46:05;14.30;;;8.77;;
25715;SDS011;13573;50.936;4.328;2023-05-10T12:48:32;14.33;;;8.43;;
25715;SDS011;13573;50.936;4.328;2023-05-10T12:51:01;16.30;;;8.73;;
25715;SDS011;13573;50.936;4.328;2023-05-10T12:53:32;16.87;;;8.80;;
25715;SDS011;13573;50.936;4.328;2023-05-10T12:55:58;15.60;;;8.47;;
25715;SDS011;13573;50.936;4.328;2023-05-10T12:58:25;14.37;;;8.93;;
25715;SDS011;13573;50.936;4.328;2023-05-10T13:00:52;15.53;;;8.70;;
25715;SDS011;13573;50.936;4.328;2023-05-10T13:03:19;15.53;;;9.10;;
25715;SDS011;13573;50.936;4.328;2023-05-10T13:05:46;16.80;;;8.37;;
25715;SDS011;13573;50.936;4.328;2023-05-10T13:08:12;13.43;;;9.10;;
25715;SDS011;13573;50.936;4.328;2023-05-10T13:10:39;14.07;;;8.03;;
25715;SDS011;13573;50.936;4.328;2023-05-10T13:13:06;13.43;;;8.87;;
25715;SDS011;13573;50.936;4.328;2023-05-10T13:15:33;13.47;;;7.97;;
25715;SDS011;13573;50.936;4.328;2023-05-10T13:18:00;15.67;;;9.23;;
25715;SDS011;13573;50.936;4.328;2023-05-10T13:20:27;14.13;;;8.67;;
25715;SDS011;13573;50.936;4.328;2023-05-10T13:22:54;12.47;;;9.27;;
25715;SDS011;13573;50.936;4.328;2023-05-10T13:25:21;12.10;;;8.17;;
25715;SDS011;13573;50.936;4.328;2023-05-10T13:27:48;14.80;;;9.53;;
25715;SDS011;13573;50.936;4.328;2023-05-10T13:30:18;18.00;;;10.03;;
25715;SDS011;13573;50.936;4.328;2023-05-10T13:32:46;16.43;;;9.93;;
25715;SDS011;13573;50.936;4.328;2023-05-10T13:35:12;15.33;;;9.70;;
25715;SDS011;13573;50.936;4.328;2023-05-10T13:37:39;13.47;;;8.70;;
25715;SDS011;13573;50.936;4.328;2023-05-10T13:40:06;14.77;;;9.40;;
25715;SDS011;13573;50.936;4.328;2023-05-10T13:42:33;15.47;;;8.97;;
25715;SDS011;13573;50.936;4.328;2023-05-10T13:45:00;14.40;;;9.50;;
25715;SDS011;13573;50.936;4.328;2023-05-10T13:47:28;18.83;;;9.90;;
25715;SDS011;13573;50.936;4.328;2023-05-10T13:49:57;15.17;;;10.10;;
25715;SDS011;13573;50.936;4.328;2023-05-10T13:52:24;15.40;;;10.80;;
25715;SDS011;13573;50.936;4.328;2023-05-10T13:54:54;18.37;;;10.50;;
25715;SDS011;13573;50.936;4.328;2023-05-10T13:57:21;17.10;;;9.83;;
25715;SDS011;13573;50.936;4.328;2023-05-10T13:59:49;14.97;;;10.73;;
25715;SDS011;13573;50.936;4.328;2023-05-10T14:02:16;19.33;;;11.70;;
25715;SDS011;13573;50.936;4.328;2023-05-10T14:04:47;16.00;;;11.00;;
25715;SDS011;13573;50.936;4.328;2023-05-10T14:07:13;17.83;;;12.13;;
25715;SDS011;13573;50.936;4.328;2023-05-10T14:09:40;24.73;;;12.70;;
25715;SDS011;13573;50.936;4.328;2023-05-10T14:12:07;17.13;;;12.17;;
25715;SDS011;13573;50.936;4.328;2023-05-10T14:14:34;17.60;;;12.73;;
25715;SDS011;13573;50.936;4.328;2023-05-10T14:17:00;19.87;;;12.90;;
25715;SDS011;13573;50.936;4.328;2023-05-10T14:19:27;17.60;;;12.90;;
25715;SDS011;13573;50.936;4.328;2023-05-10T14:21:56;17.47;;;12.13;;
25715;SDS011;13573;50.936;4.328;2023-05-10T14:24:22;19.33;;;13.77;;
25715;SDS011;13573;50.936;4.328;2023-05-10T14:26:49;24.80;;;14.47;;
25715;SDS011;13573;50.936;4.328;2023-05-10T14:29:18;20.07;;;12.67;;
25715;SDS011;13573;50.936;4.328;2023-05-10T14:31:46;20.00;;;12.47;;
25715;SDS011;13573;50.936;4.328;2023-05-10T14:34:12;19.60;;;12.63;;
25715;SDS011;13573;50.936;4.328;2023-05-10T14:36:40;24.77;;;13.53;;
25715;SDS011;13573;50.936;4.328;2023-05-10T14:39:06;22.37;;;13.17;;
25715;SDS011;13573;50.936;4.328;2023-05-10T14:41:35;21.63;;;12.23;;
25715;SDS011;13573;50.936;4.328;2023-05-10T14:44:02;21.23;;;13.17;;
25715;SDS011;13573;50.936;4.328;2023-05-10T14:46:29;19.20;;;12.70;;
25715;SDS011;13573;50.936;4.328;2023-05-10T14:48:56;23.80;;;14.60;;
25715;SDS011;13573;50.936;4.328;2023-05-10T14:51:23;22.83;;;13.43;;
25715;SDS011;13573;50.936;4.328;2023-05-10T14:53:49;20.23;;;12.83;;